sensor_id;sensor_type;location;lat;lon;timestamp;temperature;humidity
34985;DHT22;21190;58.750;17.004;2023-06-04T00:02:21;13.10;99.90
34985;DHT22;21190;58.750;17.004;2023-06-04T00:04:48;13.10;99.90
34985;DHT22;21190;58.750;17.004;2023-06-04T00:07:15;13.00;99.90
34985;DHT22;21190;58.750;17.004;2023-06-04T00:09:42;13.00;99.90
34985;DHT22;21190;58.750;17.004;2023-06-04T00:12:09;13.00;99.90
34985;DHT22;21190;58.750;17.004;2023-06-04T00:14:36;13.10;99.90
34985;DHT22;21190;58.750;17.004;2023-06-04T00:17:03;13.10;99.90
34985;DHT22;21190;58.750;17.004;2023-06-04T00:19:30;13.10;99.90
34985;DHT22;21190;58.750;17.004;2023-06-04T00:21:57;13.10;99.90
34985;DHT22;21190;58.750;17.004;2023-06-04T00:24:24;13.10;99.90
34985;DHT22;21190;58.750;17.004;2023-06-04T00:26:51;13.10;99.90
34985;DHT22;21190;58.750;17.004;2023-06-04T00:29:18;13.20;99.90
34985;DHT22;21190;58.750;17.004;2023-06-04T00:31:45;13.30;99.90
34985;DHT22;21190;58.750;17.004;2023-06-04T00:34:12;13.40;99.90
34985;DHT22;21190;58.750;17.004;2023-06-04T00:36:40;13.40;99.90
34985;DHT22;21190;58.750;17.004;2023-06-04T00:39:07;13.40;99.90
34985;DHT22;21190;58.750;17.004;2023-06-04T00:41:34;13.50;99.90
34985;DHT22;21190;58.750;17.004;2023-06-04T00:44:01;13.70;99.90
34985;DHT22;21190;58.750;17.004;2023-06-04T00:46:29;13.60;99.90
34985;DHT22;21190;58.750;17.004;2023-06-04T00:48:58;13.60;99.90
34985;DHT22;21190;58.750;17.004;2023-06-04T00:51:25;13.60;99.90
34985;DHT22;21190;58.750;17.004;2023-06-04T00:53:53;13.70;99.90
34985;DHT22;21190;58.750;17.004;2023-06-04T00:56:20;13.70;99.90
34985;DHT22;21190;58.750;17.004;2023-06-04T00:58:47;13.70;99.90
34985;DHT22;21190;58.750;17.004;2023-06-04T01:01:26;13.80;99.90
34985;DHT22;21190;58.750;17.004;2023-06-04T01:04:00;13.70;99.90
34985;DHT22;21190;58.750;17.004;2023-06-04T01:06:38;13.70;99.90
34985;DHT22;21190;58.750;17.004;2023-06-04T01:09:05;13.80;99.90
34985;DHT22;21190;58.750;17.004;2023-06-04T01:11:37;13.80;99.90
34985;DHT22;21190;58.750;17.004;2023-06-04T01:14:06;13.80;99.90
34985;DHT22;21190;58.750;17.004;2023-06-04T01:16:49;13.90;99.90
34985;DHT22;21190;58.750;17.004;2023-06-04T01:22:10;13.80;99.90
34985;DHT22;21190;58.750;17.004;2023-06-04T01:24:46;13.80;99.90
34985;DHT22;21190;58.750;17.004;2023-06-04T01:27:14;13.80;99.90
34985;DHT22;21190;58.750;17.004;2023-06-04T01:29:42;13.90;99.90
34985;DHT22;21190;58.750;17.004;2023-06-04T01:32:11;13.80;99.90
34985;DHT22;21190;58.750;17.004;2023-06-04T01:34:45;13.80;99.90
34985;DHT22;21190;58.750;17.004;2023-06-04T01:37:13;13.80;99.90
34985;DHT22;21190;58.750;17.004;2023-06-04T01:39:40;13.90;99.90
34985;DHT22;21190;58.750;17.004;2023-06-04T01:42:08;13.90;99.90
34985;DHT22;21190;58.750;17.004;2023-06-04T01:44:35;14.00;99.90
34985;DHT22;21190;58.750;17.004;2023-06-04T01:47:02;14.00;99.90
34985;DHT22;21190;58.750;17.004;2023-06-04T01:49:29;13.90;99.90
34985;DHT22;21190;58.750;17.004;2023-06-04T01:51:56;14.00;99.90
34985;DHT22;21190;58.750;17.004;2023-06-04T01:54:23;14.00;99.90
34985;DHT22;21190;58.750;17.004;2023-06-04T01:56:50;14.00;99.90
34985;DHT22;21190;58.750;17.004;2023-06-04T01:59:17;14.00;99.90
34985;DHT22;21190;58.750;17.004;2023-06-04T02:01:44;13.90;99.90
34985;DHT22;21190;58.750;17.004;2023-06-04T02:04:11;13.90;99.90
34985;DHT22;21190;58.750;17.004;2023-06-04T02:06:38;13.80;99.90
34985;DHT22;21190;58.750;17.004;2023-06-04T02:09:05;13.80;99.90
34985;DHT22;21190;58.750;17.004;2023-06-04T02:11:32;13.80;99.90
34985;DHT22;21190;58.750;17.004;2023-06-04T02:13:59;13.80;99.90
34985;DHT22;21190;58.750;17.004;2023-06-04T02:16:26;13.90;99.90
34985;DHT22;21190;58.750;17.004;2023-06-04T02:18:53;13.90;99.90
34985;DHT22;21190;58.750;17.004;2023-06-04T02:21:20;13.80;99.90
34985;DHT22;21190;58.750;17.004;2023-06-04T02:23:47;13.80;99.90
34985;DHT22;21190;58.750;17.004;2023-06-04T02:26:14;13.80;99.90
34985;DHT22;21190;58.750;17.004;2023-06-04T02:28:41;13.80;99.90
34985;DHT22;21190;58.750;17.004;2023-06-04T02:31:08;13.90;99.90
34985;DHT22;21190;58.750;17.004;2023-06-04T02:33:35;13.90;99.90
34985;DHT22;21190;58.750;17.004;2023-06-04T02:36:02;13.90;99.90
34985;DHT22;21190;58.750;17.004;2023-06-04T02:38:29;13.90;99.90
34985;DHT22;21190;58.750;17.004;2023-06-04T02:40:56;13.90;99.90
34985;DHT22;21190;58.750;17.004;2023-06-04T02:43:23;13.90;99.90
34985;DHT22;21190;58.750;17.004;2023-06-04T02:45:50;13.80;99.90
34985;DHT22;21190;58.750;17.004;2023-06-04T02:48:17;13.80;99.90
34985;DHT22;21190;58.750;17.004;2023-06-04T02:50:44;13.70;99.90
34985;DHT22;21190;58.750;17.004;2023-06-04T02:53:11;13.70;99.90
34985;DHT22;21190;58.750;17.004;2023-06-04T02:55:38;13.60;99.90
34985;DHT22;21190;58.750;17.004;2023-06-04T02:58:05;13.60;99.90
34985;DHT22;21190;58.750;17.004;2023-06-04T03:00:32;13.60;99.90
34985;DHT22;21190;58.750;17.004;2023-06-04T03:02:59;13.60;99.90
34985;DHT22;21190;58.750;17.004;2023-06-04T03:05:29;13.60;99.90
34985;DHT22;21190;58.750;17.004;2023-06-04T03:08:01;13.50;99.90
34985;DHT22;21190;58.750;17.004;2023-06-04T03:10:29;13.50;99.90
34985;DHT22;21190;58.750;17.004;2023-06-04T03:12:57;13.50;99.90
34985;DHT22;21190;58.750;17.004;2023-06-04T03:15:24;13.50;99.90
34985;DHT22;21190;58.750;17.004;2023-06-04T03:17:51;13.50;99.90
34985;DHT22;21190;58.750;17.004;2023-06-04T03:20:19;13.40;99.90
34985;DHT22;21190;58.750;17.004;2023-06-04T03:22:46;13.40;99.90
34985;DHT22;21190;58.750;17.004;2023-06-04T03:25:13;13.40;99.90
34985;DHT22;21190;58.750;17.004;2023-06-04T03:27:40;13.40;99.90
34985;DHT22;21190;58.750;17.004;2023-06-04T03:30:07;13.40;99.90
34985;DHT22;21190;58.750;17.004;2023-06-04T03:32:35;13.40;99.90
34985;DHT22;21190;58.750;17.004;2023-06-04T03:35:02;13.40;99.90
34985;DHT22;21190;58.750;17.004;2023-06-04T03:37:29;13.30;99.90
34985;DHT22;21190;58.750;17.004;2023-06-04T03:39:56;13.30;99.90
34985;DHT22;21190;58.750;17.004;2023-06-04T03:42:23;13.30;99.90
34985;DHT22;21190;58.750;17.004;2023-06-04T03:44:50;13.30;99.90
34985;DHT22;21190;58.750;17.004;2023-06-04T03:47:17;13.30;99.90
34985;DHT22;21190;58.750;17.004;2023-06-04T03:49:44;13.30;99.90
34985;DHT22;21190;58.750;17.004;2023-06-04T03:52:11;13.30;99.90
34985;DHT22;21190;58.750;17.004;2023-06-04T03:54:38;13.20;99.90
34985;DHT22;21190;58.750;17.004;2023-06-04T03:57:05;13.30;99.90
34985;DHT22;21190;58.750;17.004;2023-06-04T03:59:32;13.20;99.90
34985;DHT22;21190;58.750;17.004;2023-06-04T04:01:59;13.10;99.90
34985;DHT22;21190;58.750;17.004;2023-06-04T04:04:26;13.10;99.90
34985;DHT22;21190;58.750;17.004;2023-06-04T04:06:53;13.10;99.90
34985;DHT22;21190;58.750;17.004;2023-06-04T04:09:20;13.10;99.90
34985;DHT22;21190;58.750;17.004;2023-06-04T04:11:47;13.10;99.90
34985;DHT22;21190;58.750;17.004;2023-06-04T04:14:14;13.10;99.90
34985;DHT22;21190;58.750;17.004;2023-06-04T04:16:41;13.10;99.90
34985;DHT22;21190;58.750;17.004;2023-06-04T04:19:08;13.20;99.90
34985;DHT22;21190;58.750;17.004;2023-06-04T04:21:36;13.30;99.90
34985;DHT22;21190;58.750;17.004;2023-06-04T04:24:03;13.20;99.90
34985;DHT22;21190;58.750;17.004;2023-06-04T04:26:31;13.20;99.90
34985;DHT22;21190;58.750;17.004;2023-06-04T04:28:58;13.10;99.90
34985;DHT22;21190;58.750;17.004;2023-06-04T04:31:27;13.10;99.90
34985;DHT22;21190;58.750;17.004;2023-06-04T04:33:57;13.10;99.90
34985;DHT22;21190;58.750;17.004;2023-06-04T04:36:24;13.10;99.90
34985;DHT22;21190;58.750;17.004;2023-06-04T04:38:51;13.10;99.90
34985;DHT22;21190;58.750;17.004;2023-06-04T04:41:21;13.00;99.90
34985;DHT22;21190;58.750;17.004;2023-06-04T04:43:53;13.00;99.90
34985;DHT22;21190;58.750;17.004;2023-06-04T04:46:20;13.10;99.90
34985;DHT22;21190;58.750;17.004;2023-06-04T04:48:47;13.00;99.90
34985;DHT22;21190;58.750;17.004;2023-06-04T04:51:14;13.00;99.90
34985;DHT22;21190;58.750;17.004;2023-06-04T04:53:41;13.00;99.90
34985;DHT22;21190;58.750;17.004;2023-06-04T04:56:08;13.00;99.90
34985;DHT22;21190;58.750;17.004;2023-06-04T04:58:35;13.00;99.90
34985;DHT22;21190;58.750;17.004;2023-06-04T05:01:02;13.00;99.90
34985;DHT22;21190;58.750;17.004;2023-06-04T05:03:29;12.90;99.90
34985;DHT22;21190;58.750;17.004;2023-06-04T05:05:56;12.90;99.90
34985;DHT22;21190;58.750;17.004;2023-06-04T05:08:23;13.00;99.90
34985;DHT22;21190;58.750;17.004;2023-06-04T05:10:50;13.00;99.90
34985;DHT22;21190;58.750;17.004;2023-06-04T05:13:17;13.00;99.90
34985;DHT22;21190;58.750;17.004;2023-06-04T05:15:44;13.00;99.90
34985;DHT22;21190;58.750;17.004;2023-06-04T05:18:11;13.10;99.90
34985;DHT22;21190;58.750;17.004;2023-06-04T05:20:38;13.10;99.90
34985;DHT22;21190;58.750;17.004;2023-06-04T05:23:05;13.20;99.90
34985;DHT22;21190;58.750;17.004;2023-06-04T05:25:32;13.20;99.90
34985;DHT22;21190;58.750;17.004;2023-06-04T05:28:00;13.30;99.90
34985;DHT22;21190;58.750;17.004;2023-06-04T05:30:26;13.30;99.90
34985;DHT22;21190;58.750;17.004;2023-06-04T05:32:53;13.20;99.90
34985;DHT22;21190;58.750;17.004;2023-06-04T05:35:20;13.20;99.90
34985;DHT22;21190;58.750;17.004;2023-06-04T05:37:48;13.20;99.90
34985;DHT22;21190;58.750;17.004;2023-06-04T05:40:20;13.20;99.90
34985;DHT22;21190;58.750;17.004;2023-06-04T05:42:48;13.20;99.90
34985;DHT22;21190;58.750;17.004;2023-06-04T05:45:16;13.30;99.90
34985;DHT22;21190;58.750;17.004;2023-06-04T05:47:43;13.30;99.90
34985;DHT22;21190;58.750;17.004;2023-06-04T05:50:10;13.30;99.90
34985;DHT22;21190;58.750;17.004;2023-06-04T05:52:37;13.20;99.90
34985;DHT22;21190;58.750;17.004;2023-06-04T05:55:05;13.40;99.90
34985;DHT22;21190;58.750;17.004;2023-06-04T05:57:34;13.40;99.90
34985;DHT22;21190;58.750;17.004;2023-06-04T06:00:02;13.40;99.90
34985;DHT22;21190;58.750;17.004;2023-06-04T06:02:32;13.30;99.90
34985;DHT22;21190;58.750;17.004;2023-06-04T06:05:01;13.40;99.90
34985;DHT22;21190;58.750;17.004;2023-06-04T06:07:28;13.40;99.90
34985;DHT22;21190;58.750;17.004;2023-06-04T06:09:55;13.40;99.90
34985;DHT22;21190;58.750;17.004;2023-06-04T06:12:22;13.40;99.90
34985;DHT22;21190;58.750;17.004;2023-06-04T06:14:49;13.40;99.90
34985;DHT22;21190;58.750;17.004;2023-06-04T06:17:16;13.30;99.90
34985;DHT22;21190;58.750;17.004;2023-06-04T06:19:43;13.40;99.90
34985;DHT22;21190;58.750;17.004;2023-06-04T06:22:10;13.40;99.90
34985;DHT22;21190;58.750;17.004;2023-06-04T06:24:39;13.40;99.90
34985;DHT22;21190;58.750;17.004;2023-06-04T06:27:06;13.40;99.90
34985;DHT22;21190;58.750;17.004;2023-06-04T06:29:33;13.40;99.90
34985;DHT22;21190;58.750;17.004;2023-06-04T06:32:00;13.40;99.90
34985;DHT22;21190;58.750;17.004;2023-06-04T06:34:27;13.40;99.90
34985;DHT22;21190;58.750;17.004;2023-06-04T06:36:54;13.40;99.90
34985;DHT22;21190;58.750;17.004;2023-06-04T06:39:21;13.50;99.80
34985;DHT22;21190;58.750;17.004;2023-06-04T06:41:48;13.50;99.70
34985;DHT22;21190;58.750;17.004;2023-06-04T06:44:15;13.50;99.70
34985;DHT22;21190;58.750;17.004;2023-06-04T06:46:42;13.50;99.50
34985;DHT22;21190;58.750;17.004;2023-06-04T06:49:09;13.40;99.70
34985;DHT22;21190;58.750;17.004;2023-06-04T06:51:36;13.30;99.90
34985;DHT22;21190;58.750;17.004;2023-06-04T06:54:03;13.40;99.80
34985;DHT22;21190;58.750;17.004;2023-06-04T06:56:30;13.40;99.50
34985;DHT22;21190;58.750;17.004;2023-06-04T06:58:57;13.40;99.70
34985;DHT22;21190;58.750;17.004;2023-06-04T07:01:24;13.40;99.30
34985;DHT22;21190;58.750;17.004;2023-06-04T07:03:51;13.40;99.30
34985;DHT22;21190;58.750;17.004;2023-06-04T07:06:18;13.40;99.60
34985;DHT22;21190;58.750;17.004;2023-06-04T07:08:45;13.40;99.60
34985;DHT22;21190;58.750;17.004;2023-06-04T07:11:14;13.50;99.20
34985;DHT22;21190;58.750;17.004;2023-06-04T07:13:43;13.50;99.00
34985;DHT22;21190;58.750;17.004;2023-06-04T07:16:10;13.40;99.50
34985;DHT22;21190;58.750;17.004;2023-06-04T07:18:37;13.40;99.10
34985;DHT22;21190;58.750;17.004;2023-06-04T07:21:04;13.40;99.20
34985;DHT22;21190;58.750;17.004;2023-06-04T07:23:32;13.30;99.60
34985;DHT22;21190;58.750;17.004;2023-06-04T07:25:59;13.40;99.40
34985;DHT22;21190;58.750;17.004;2023-06-04T07:28:26;13.40;98.80
34985;DHT22;21190;58.750;17.004;2023-06-04T07:30:53;13.40;98.80
34985;DHT22;21190;58.750;17.004;2023-06-04T07:33:20;13.40;98.90
34985;DHT22;21190;58.750;17.004;2023-06-04T07:35:47;13.30;98.70
34985;DHT22;21190;58.750;17.004;2023-06-04T07:38:14;13.40;98.60
34985;DHT22;21190;58.750;17.004;2023-06-04T07:40:42;13.50;98.30
34985;DHT22;21190;58.750;17.004;2023-06-04T07:43:09;13.60;98.50
34985;DHT22;21190;58.750;17.004;2023-06-04T07:45:36;13.70;98.40
34985;DHT22;21190;58.750;17.004;2023-06-04T07:48:03;13.70;98.20
34985;DHT22;21190;58.750;17.004;2023-06-04T07:50:30;13.70;98.40
34985;DHT22;21190;58.750;17.004;2023-06-04T07:53:01;13.60;98.40
34985;DHT22;21190;58.750;17.004;2023-06-04T07:55:28;13.70;98.20
34985;DHT22;21190;58.750;17.004;2023-06-04T07:57:55;13.90;97.60
34985;DHT22;21190;58.750;17.004;2023-06-04T08:00:22;13.80;97.70
34985;DHT22;21190;58.750;17.004;2023-06-04T08:02:49;13.80;98.00
34985;DHT22;21190;58.750;17.004;2023-06-04T08:05:17;13.80;97.80
34985;DHT22;21190;58.750;17.004;2023-06-04T08:07:45;13.80;97.70
34985;DHT22;21190;58.750;17.004;2023-06-04T08:10:13;13.80;98.10
34985;DHT22;21190;58.750;17.004;2023-06-04T08:12:40;13.80;98.30
34985;DHT22;21190;58.750;17.004;2023-06-04T08:15:07;13.90;98.20
34985;DHT22;21190;58.750;17.004;2023-06-04T08:17:34;14.00;98.00
34985;DHT22;21190;58.750;17.004;2023-06-04T08:20:01;14.00;98.10
34985;DHT22;21190;58.750;17.004;2023-06-04T08:22:33;14.10;98.00
34985;DHT22;21190;58.750;17.004;2023-06-04T08:25:00;14.00;98.10
34985;DHT22;21190;58.750;17.004;2023-06-04T08:27:27;14.00;98.50
34985;DHT22;21190;58.750;17.004;2023-06-04T08:29:54;14.20;98.40
34985;DHT22;21190;58.750;17.004;2023-06-04T08:32:21;14.40;97.90
34985;DHT22;21190;58.750;17.004;2023-06-04T08:34:49;14.40;97.60
34985;DHT22;21190;58.750;17.004;2023-06-04T08:37:17;14.40;97.80
34985;DHT22;21190;58.750;17.004;2023-06-04T08:39:44;14.50;97.90
34985;DHT22;21190;58.750;17.004;2023-06-04T08:42:26;14.50;97.70
34985;DHT22;21190;58.750;17.004;2023-06-04T08:44:54;14.50;97.70
34985;DHT22;21190;58.750;17.004;2023-06-04T08:47:24;14.60;97.50
34985;DHT22;21190;58.750;17.004;2023-06-04T08:49:55;14.50;97.50
34985;DHT22;21190;58.750;17.004;2023-06-04T08:52:25;14.60;97.70
34985;DHT22;21190;58.750;17.004;2023-06-04T08:54:54;14.60;97.10
34985;DHT22;21190;58.750;17.004;2023-06-04T08:57:21;14.60;97.40
34985;DHT22;21190;58.750;17.004;2023-06-04T08:59:48;14.60;97.50
34985;DHT22;21190;58.750;17.004;2023-06-04T09:02:17;14.70;97.40
34985;DHT22;21190;58.750;17.004;2023-06-04T09:04:44;14.70;97.50
34985;DHT22;21190;58.750;17.004;2023-06-04T09:07:12;14.80;97.60
34985;DHT22;21190;58.750;17.004;2023-06-04T09:09:40;14.80;97.00
34985;DHT22;21190;58.750;17.004;2023-06-04T09:12:10;14.70;97.50
34985;DHT22;21190;58.750;17.004;2023-06-04T09:14:38;14.90;96.90
34985;DHT22;21190;58.750;17.004;2023-06-04T09:17:05;14.80;96.80
34985;DHT22;21190;58.750;17.004;2023-06-04T09:19:32;14.90;96.40
34985;DHT22;21190;58.750;17.004;2023-06-04T09:22:00;14.90;96.20
34985;DHT22;21190;58.750;17.004;2023-06-04T09:24:42;14.90;96.20
34985;DHT22;21190;58.750;17.004;2023-06-04T09:27:19;14.80;96.70
34985;DHT22;21190;58.750;17.004;2023-06-04T09:29:53;14.90;97.00
34985;DHT22;21190;58.750;17.004;2023-06-04T09:34:52;15.10;96.40
34985;DHT22;21190;58.750;17.004;2023-06-04T09:37:20;15.10;96.20
34985;DHT22;21190;58.750;17.004;2023-06-04T09:39:54;15.30;96.00
34985;DHT22;21190;58.750;17.004;2023-06-04T09:42:22;15.40;95.30
34985;DHT22;21190;58.750;17.004;2023-06-04T09:44:49;15.30;95.30
34985;DHT22;21190;58.750;17.004;2023-06-04T09:47:17;15.30;95.60
34985;DHT22;21190;58.750;17.004;2023-06-04T09:49:47;15.30;95.70
34985;DHT22;21190;58.750;17.004;2023-06-04T09:52:16;15.40;96.10
34985;DHT22;21190;58.750;17.004;2023-06-04T09:54:43;15.30;95.70
34985;DHT22;21190;58.750;17.004;2023-06-04T09:57:18;15.40;95.90
34985;DHT22;21190;58.750;17.004;2023-06-04T09:59:46;15.50;95.60
34985;DHT22;21190;58.750;17.004;2023-06-04T10:02:22;15.50;95.30
34985;DHT22;21190;58.750;17.004;2023-06-04T10:04:53;15.60;95.60
34985;DHT22;21190;58.750;17.004;2023-06-04T10:07:26;15.70;95.60
34985;DHT22;21190;58.750;17.004;2023-06-04T10:09:54;15.50;95.30
34985;DHT22;21190;58.750;17.004;2023-06-04T10:12:26;15.40;95.70
34985;DHT22;21190;58.750;17.004;2023-06-04T10:14:59;15.50;95.40
34985;DHT22;21190;58.750;17.004;2023-06-04T10:17:28;15.50;95.20
34985;DHT22;21190;58.750;17.004;2023-06-04T10:19:58;15.70;95.30
34985;DHT22;21190;58.750;17.004;2023-06-04T10:22:28;15.80;95.40
34985;DHT22;21190;58.750;17.004;2023-06-04T10:24:56;15.90;94.90
34985;DHT22;21190;58.750;17.004;2023-06-04T10:27:24;16.20;95.00
34985;DHT22;21190;58.750;17.004;2023-06-04T10:29:52;16.10;95.00
34985;DHT22;21190;58.750;17.004;2023-06-04T10:32:19;16.10;94.30
34985;DHT22;21190;58.750;17.004;2023-06-04T10:34:47;16.00;94.20
34985;DHT22;21190;58.750;17.004;2023-06-04T10:37:25;16.00;94.60
34985;DHT22;21190;58.750;17.004;2023-06-04T10:39:56;16.10;94.40
34985;DHT22;21190;58.750;17.004;2023-06-04T10:42:24;16.30;94.00
34985;DHT22;21190;58.750;17.004;2023-06-04T10:44:54;16.20;93.80
34985;DHT22;21190;58.750;17.004;2023-06-04T10:47:25;16.10;94.00
34985;DHT22;21190;58.750;17.004;2023-06-04T10:49:54;16.10;94.10
34985;DHT22;21190;58.750;17.004;2023-06-04T10:52:22;16.10;94.60
34985;DHT22;21190;58.750;17.004;2023-06-04T10:54:49;16.20;94.20
34985;DHT22;21190;58.750;17.004;2023-06-04T10:57:18;16.50;93.80
34985;DHT22;21190;58.750;17.004;2023-06-04T10:59:55;16.60;93.30
34985;DHT22;21190;58.750;17.004;2023-06-04T11:02:23;16.60;93.10
34985;DHT22;21190;58.750;17.004;2023-06-04T11:05:05;16.60;93.10
34985;DHT22;21190;58.750;17.004;2023-06-04T11:07:45;16.50;93.30
34985;DHT22;21190;58.750;17.004;2023-06-04T11:10:13;16.40;93.30
34985;DHT22;21190;58.750;17.004;2023-06-04T11:12:50;16.40;93.70
34985;DHT22;21190;58.750;17.004;2023-06-04T11:15:17;16.60;93.50
34985;DHT22;21190;58.750;17.004;2023-06-04T11:17:54;16.50;93.20
34985;DHT22;21190;58.750;17.004;2023-06-04T11:20:22;16.50;93.60
34985;DHT22;21190;58.750;17.004;2023-06-04T11:22:55;16.50;93.90
34985;DHT22;21190;58.750;17.004;2023-06-04T11:25:24;16.60;93.60
34985;DHT22;21190;58.750;17.004;2023-06-04T11:27:53;16.80;93.90
34985;DHT22;21190;58.750;17.004;2023-06-04T11:30:20;16.90;92.80
34985;DHT22;21190;58.750;17.004;2023-06-04T11:32:48;16.80;92.80
34985;DHT22;21190;58.750;17.004;2023-06-04T11:35:15;16.80;92.70
34985;DHT22;21190;58.750;17.004;2023-06-04T11:37:53;16.80;92.60
34985;DHT22;21190;58.750;17.004;2023-06-04T11:40:21;16.80;93.10
34985;DHT22;21190;58.750;17.004;2023-06-04T11:42:49;16.80;93.20
34985;DHT22;21190;58.750;17.004;2023-06-04T11:45:18;16.80;92.70
34985;DHT22;21190;58.750;17.004;2023-06-04T11:47:52;16.90;93.00
34985;DHT22;21190;58.750;17.004;2023-06-04T11:50:25;17.00;92.70
34985;DHT22;21190;58.750;17.004;2023-06-04T11:52:53;17.20;92.40
34985;DHT22;21190;58.750;17.004;2023-06-04T11:55:20;17.20;92.10
34985;DHT22;21190;58.750;17.004;2023-06-04T11:57:49;17.20;92.40
34985;DHT22;21190;58.750;17.004;2023-06-04T12:00:18;17.20;92.20
34985;DHT22;21190;58.750;17.004;2023-06-04T12:02:53;17.00;92.10
34985;DHT22;21190;58.750;17.004;2023-06-04T12:05:23;16.90;92.40
34985;DHT22;21190;58.750;17.004;2023-06-04T12:07:51;16.90;92.60
34985;DHT22;21190;58.750;17.004;2023-06-04T12:10:19;16.90;92.40
34985;DHT22;21190;58.750;17.004;2023-06-04T12:12:53;17.00;92.40
34985;DHT22;21190;58.750;17.004;2023-06-04T12:15:21;17.10;92.40
34985;DHT22;21190;58.750;17.004;2023-06-04T12:17:50;17.20;92.00
34985;DHT22;21190;58.750;17.004;2023-06-04T12:20:18;17.20;92.30
34985;DHT22;21190;58.750;17.004;2023-06-04T12:22:46;17.30;91.90
34985;DHT22;21190;58.750;17.004;2023-06-04T12:25:24;17.40;91.60
34985;DHT22;21190;58.750;17.004;2023-06-04T12:27:54;17.40;91.50
34985;DHT22;21190;58.750;17.004;2023-06-04T12:30:21;17.50;91.50
34985;DHT22;21190;58.750;17.004;2023-06-04T12:32:49;17.40;91.70
34985;DHT22;21190;58.750;17.004;2023-06-04T12:35:17;17.40;92.30
34985;DHT22;21190;58.750;17.004;2023-06-04T12:37:44;17.60;91.70
34985;DHT22;21190;58.750;17.004;2023-06-04T12:40:11;17.70;91.30
34985;DHT22;21190;58.750;17.004;2023-06-04T12:42:38;17.80;91.00
34985;DHT22;21190;58.750;17.004;2023-06-04T12:45:06;17.80;90.90
34985;DHT22;21190;58.750;17.004;2023-06-04T12:47:33;17.80;91.20
34985;DHT22;21190;58.750;17.004;2023-06-04T12:50:00;17.80;90.90
34985;DHT22;21190;58.750;17.004;2023-06-04T12:52:27;17.80;92.30
34985;DHT22;21190;58.750;17.004;2023-06-04T12:54:54;17.80;96.00
34985;DHT22;21190;58.750;17.004;2023-06-04T12:57:21;17.70;96.50
34985;DHT22;21190;58.750;17.004;2023-06-04T12:59:48;17.70;96.80
34985;DHT22;21190;58.750;17.004;2023-06-04T13:02:15;17.70;96.80
34985;DHT22;21190;58.750;17.004;2023-06-04T13:04:42;17.80;97.00
34985;DHT22;21190;58.750;17.004;2023-06-04T13:07:11;17.90;97.20
34985;DHT22;21190;58.750;17.004;2023-06-04T13:09:38;18.10;97.10
34985;DHT22;21190;58.750;17.004;2023-06-04T13:12:05;18.10;96.60
34985;DHT22;21190;58.750;17.004;2023-06-04T13:14:32;18.00;96.60
34985;DHT22;21190;58.750;17.004;2023-06-04T13:17:00;17.80;97.00
34985;DHT22;21190;58.750;17.004;2023-06-04T13:19:46;17.70;96.90
34985;DHT22;21190;58.750;17.004;2023-06-04T13:22:13;17.70;96.90
34985;DHT22;21190;58.750;17.004;2023-06-04T13:24:40;17.70;97.20
34985;DHT22;21190;58.750;17.004;2023-06-04T13:27:07;17.80;97.40
34985;DHT22;21190;58.750;17.004;2023-06-04T13:29:34;17.90;97.50
34985;DHT22;21190;58.750;17.004;2023-06-04T13:32:01;18.00;97.70
34985;DHT22;21190;58.750;17.004;2023-06-04T13:34:29;18.00;97.30
34985;DHT22;21190;58.750;17.004;2023-06-04T13:36:58;18.00;97.40
34985;DHT22;21190;58.750;17.004;2023-06-04T13:39:25;17.90;97.60
34985;DHT22;21190;58.750;17.004;2023-06-04T13:41:52;17.90;97.50
34985;DHT22;21190;58.750;17.004;2023-06-04T13:44:20;17.80;97.60
34985;DHT22;21190;58.750;17.004;2023-06-04T13:46:53;17.80;97.90
34985;DHT22;21190;58.750;17.004;2023-06-04T13:49:20;17.60;97.70
34985;DHT22;21190;58.750;17.004;2023-06-04T13:51:48;17.60;98.20
34985;DHT22;21190;58.750;17.004;2023-06-04T13:54:14;17.70;98.00
34985;DHT22;21190;58.750;17.004;2023-06-04T13:56:43;17.80;98.20
34985;DHT22;21190;58.750;17.004;2023-06-04T13:59:10;17.80;98.00
34985;DHT22;21190;58.750;17.004;2023-06-04T14:01:37;17.90;97.70
34985;DHT22;21190;58.750;17.004;2023-06-04T14:04:04;17.90;97.30
34985;DHT22;21190;58.750;17.004;2023-06-04T14:06:34;18.00;97.50
34985;DHT22;21190;58.750;17.004;2023-06-04T14:09:03;18.10;97.30
34985;DHT22;21190;58.750;17.004;2023-06-04T14:11:32;18.00;97.00
34985;DHT22;21190;58.750;17.004;2023-06-04T14:14:00;18.10;96.80
34985;DHT22;21190;58.750;17.004;2023-06-04T14:16:27;18.10;97.00
34985;DHT22;21190;58.750;17.004;2023-06-04T14:18:54;18.10;96.50
34985;DHT22;21190;58.750;17.004;2023-06-04T14:21:21;18.00;96.00
34985;DHT22;21190;58.750;17.004;2023-06-04T14:23:48;18.00;96.10
34985;DHT22;21190;58.750;17.004;2023-06-04T14:26:17;18.00;95.90
34985;DHT22;21190;58.750;17.004;2023-06-04T14:28:45;18.10;95.90
34985;DHT22;21190;58.750;17.004;2023-06-04T14:31:11;18.10;95.80
34985;DHT22;21190;58.750;17.004;2023-06-04T14:33:38;18.10;96.00
34985;DHT22;21190;58.750;17.004;2023-06-04T14:36:06;18.20;95.40
34985;DHT22;21190;58.750;17.004;2023-06-04T14:38:33;18.20;95.10
34985;DHT22;21190;58.750;17.004;2023-06-04T14:41:00;18.20;95.20
34985;DHT22;21190;58.750;17.004;2023-06-04T14:43:27;18.30;95.40
34985;DHT22;21190;58.750;17.004;2023-06-04T14:45:54;18.40;95.30
34985;DHT22;21190;58.750;17.004;2023-06-04T14:48:21;18.40;95.00
34985;DHT22;21190;58.750;17.004;2023-06-04T14:50:48;18.50;94.40
34985;DHT22;21190;58.750;17.004;2023-06-04T14:53:15;18.50;94.60
34985;DHT22;21190;58.750;17.004;2023-06-04T14:55:42;18.50;94.80
34985;DHT22;21190;58.750;17.004;2023-06-04T14:58:09;18.50;94.10
34985;DHT22;21190;58.750;17.004;2023-06-04T15:00:36;18.50;94.50
34985;DHT22;21190;58.750;17.004;2023-06-04T15:03:03;18.50;94.80
34985;DHT22;21190;58.750;17.004;2023-06-04T15:05:34;18.40;94.80
34985;DHT22;21190;58.750;17.004;2023-06-04T15:08:02;18.40;95.20
34985;DHT22;21190;58.750;17.004;2023-06-04T15:10:30;18.40;95.30
34985;DHT22;21190;58.750;17.004;2023-06-04T15:12:57;18.30;95.40
34985;DHT22;21190;58.750;17.004;2023-06-04T15:15:25;18.40;95.70
34985;DHT22;21190;58.750;17.004;2023-06-04T15:17:52;18.50;96.00
34985;DHT22;21190;58.750;17.004;2023-06-04T15:20:19;18.60;95.80
34985;DHT22;21190;58.750;17.004;2023-06-04T15:22:47;18.70;95.90
34985;DHT22;21190;58.750;17.004;2023-06-04T15:25:14;18.70;95.90
34985;DHT22;21190;58.750;17.004;2023-06-04T15:27:41;18.70;96.20